sensor_id;sensor_type;location;lat;lon;timestamp;P1;durP1;ratioP1;P2;durP2;ratioP2
25653;SDS011;13511;48.622;9.230;2023-09-30T00:01:44;23.85;;;11.18;;
25653;SDS011;13511;48.622;9.230;2023-09-30T00:04:10;24.60;;;11.57;;
25653;SDS011;13511;48.622;9.230;2023-09-30T00:06:36;24.65;;;11.15;;
25653;SDS011;13511;48.622;9.230;2023-09-30T00:09:02;23.50;;;11.57;;
25653;SDS011;13511;48.622;9.230;2023-09-30T00:11:28;25.38;;;12.25;;
25653;SDS011;13511;48.622;9.230;2023-09-30T00:13:54;24.65;;;11.85;;
25653;SDS011;13511;48.622;9.230;2023-09-30T00:16:20;23.60;;;11.40;;
25653;SDS011;13511;48.622;9.230;2023-09-30T00:18:46;25.23;;;11.93;;
25653;SDS011;13511;48.622;9.230;2023-09-30T00:21:12;23.30;;;11.25;;
25653;SDS011;13511;48.622;9.230;2023-09-30T00:23:40;22.02;;;10.43;;
25653;SDS011;13511;48.622;9.230;2023-09-30T00:26:06;20.33;;;10.27;;
25653;SDS011;13511;48.622;9.230;2023-09-30T00:28:32;21.67;;;10.85;;
25653;SDS011;13511;48.622;9.230;2023-09-30T00:30:58;22.08;;;10.45;;
25653;SDS011;13511;48.622;9.230;2023-09-30T00:33:24;21.85;;;11.20;;
25653;SDS011;13511;48.622;9.230;2023-09-30T00:35:50;22.48;;;11.70;;
25653;SDS011;13511;48.622;9.230;2023-09-30T00:38:16;20.95;;;10.60;;
25653;SDS011;13511;48.622;9.230;2023-09-30T00:40:48;22.23;;;10.57;;
25653;SDS011;13511;48.622;9.230;2023-09-30T00:43:21;23.60;;;10.10;;
25653;SDS011;13511;48.622;9.230;2023-09-30T00:45:52;21.52;;;10.82;;
25653;SDS011;13511;48.622;9.230;2023-09-30T00:48:22;21.70;;;10.57;;
25653;SDS011;13511;48.622;9.230;2023-09-30T00:50:48;21.52;;;9.57;;
25653;SDS011;13511;48.622;9.230;2023-09-30T00:53:14;20.95;;;10.38;;
25653;SDS011;13511;48.622;9.230;2023-09-30T00:55:40;24.23;;;11.00;;
25653;SDS011;13511;48.622;9.230;2023-09-30T00:58:06;20.50;;;9.80;;
25653;SDS011;13511;48.622;9.230;2023-09-30T01:00:32;19.13;;;10.00;;
25653;SDS011;13511;48.622;9.230;2023-09-30T01:02:58;21.77;;;9.07;;
25653;SDS011;13511;48.622;9.230;2023-09-30T01:05:28;19.23;;;9.87;;
25653;SDS011;13511;48.622;9.230;2023-09-30T01:07:55;20.42;;;9.50;;
25653;SDS011;13511;48.622;9.230;2023-09-30T01:10:21;18.13;;;9.35;;
25653;SDS011;13511;48.622;9.230;2023-09-30T01:12:47;19.92;;;9.43;;
25653;SDS011;13511;48.622;9.230;2023-09-30T01:15:13;18.25;;;8.75;;
25653;SDS011;13511;48.622;9.230;2023-09-30T01:17:39;16.70;;;8.75;;
25653;SDS011;13511;48.622;9.230;2023-09-30T01:20:05;18.05;;;8.73;;
25653;SDS011;13511;48.622;9.230;2023-09-30T01:22:33;17.42;;;8.43;;
25653;SDS011;13511;48.622;9.230;2023-09-30T01:24:59;19.77;;;9.75;;
25653;SDS011;13511;48.622;9.230;2023-09-30T01:27:25;17.95;;;8.93;;
25653;SDS011;13511;48.622;9.230;2023-09-30T01:29:51;17.42;;;8.65;;
25653;SDS011;13511;48.622;9.230;2023-09-30T01:32:17;21.52;;;9.50;;
25653;SDS011;13511;48.622;9.230;2023-09-30T01:34:43;20.88;;;9.75;;
25653;SDS011;13511;48.622;9.230;2023-09-30T01:37:09;18.63;;;9.35;;
25653;SDS011;13511;48.622;9.230;2023-09-30T01:39:35;15.55;;;8.13;;
25653;SDS011;13511;48.622;9.230;2023-09-30T01:42:01;16.80;;;8.35;;
25653;SDS011;13511;48.622;9.230;2023-09-30T01:44:28;17.98;;;8.15;;
25653;SDS011;13511;48.622;9.230;2023-09-30T01:46:54;18.05;;;7.57;;
25653;SDS011;13511;48.622;9.230;2023-09-30T01:49:20;14.60;;;8.15;;
25653;SDS011;13511;48.622;9.230;2023-09-30T01:51:49;15.23;;;8.13;;
25653;SDS011;13511;48.622;9.230;2023-09-30T01:54:15;14.50;;;8.05;;
25653;SDS011;13511;48.622;9.230;2023-09-30T01:56:41;17.50;;;8.73;;
25653;SDS011;13511;48.622;9.230;2023-09-30T01:59:07;19.45;;;8.35;;
25653;SDS011;13511;48.622;9.230;2023-09-30T02:01:33;15.23;;;8.55;;
25653;SDS011;13511;48.622;9.230;2023-09-30T02:03:59;14.63;;;8.50;;
25653;SDS011;13511;48.622;9.230;2023-09-30T02:06:25;13.95;;;7.80;;
25653;SDS011;13511;48.622;9.230;2023-09-30T02:08:51;18.10;;;7.93;;
25653;SDS011;13511;48.622;9.230;2023-09-30T02:11:17;14.93;;;7.78;;
25653;SDS011;13511;48.622;9.230;2023-09-30T02:13:43;18.75;;;7.97;;
25653;SDS011;13511;48.622;9.230;2023-09-30T02:16:13;16.48;;;7.85;;
25653;SDS011;13511;48.622;9.230;2023-09-30T02:18:39;13.55;;;7.80;;
25653;SDS011;13511;48.622;9.230;2023-09-30T02:21:06;14.95;;;7.65;;
25653;SDS011;13511;48.622;9.230;2023-09-30T02:23:34;16.23;;;7.85;;
25653;SDS011;13511;48.622;9.230;2023-09-30T02:25:59;16.45;;;7.88;;
25653;SDS011;13511;48.622;9.230;2023-09-30T02:28:26;14.73;;;8.48;;
25653;SDS011;13511;48.622;9.230;2023-09-30T02:30:52;16.10;;;8.02;;
25653;SDS011;13511;48.622;9.230;2023-09-30T02:33:18;15.18;;;8.02;;
25653;SDS011;13511;48.622;9.230;2023-09-30T02:35:44;12.25;;;7.00;;
25653;SDS011;13511;48.622;9.230;2023-09-30T02:38:11;18.33;;;7.75;;
25653;SDS011;13511;48.622;9.230;2023-09-30T02:40:37;12.15;;;6.88;;
25653;SDS011;13511;48.622;9.230;2023-09-30T02:43:05;14.68;;;7.93;;
25653;SDS011;13511;48.622;9.230;2023-09-30T02:45:31;15.80;;;7.50;;
25653;SDS011;13511;48.622;9.230;2023-09-30T02:47:57;13.57;;;7.15;;
25653;SDS011;13511;48.622;9.230;2023-09-30T02:50:23;16.25;;;8.23;;
25653;SDS011;13511;48.622;9.230;2023-09-30T02:52:49;17.35;;;7.45;;
25653;SDS011;13511;48.622;9.230;2023-09-30T02:55:15;11.68;;;6.82;;
25653;SDS011;13511;48.622;9.230;2023-09-30T02:57:41;15.60;;;7.85;;
25653;SDS011;13511;48.622;9.230;2023-09-30T03:00:08;12.20;;;7.20;;
25653;SDS011;13511;48.622;9.230;2023-09-30T03:02:54;17.60;;;7.75;;
25653;SDS011;13511;48.622;9.230;2023-09-30T03:05:20;13.32;;;7.70;;
25653;SDS011;13511;48.622;9.230;2023-09-30T03:07:47;13.65;;;7.00;;
25653;SDS011;13511;48.622;9.230;2023-09-30T03:10:15;14.32;;;7.35;;
25653;SDS011;13511;48.622;9.230;2023-09-30T03:12:54;15.57;;;7.68;;
25653;SDS011;13511;48.622;9.230;2023-09-30T03:15:21;15.32;;;7.00;;
25653;SDS011;13511;48.622;9.230;2023-09-30T03:17:47;17.65;;;7.45;;
25653;SDS011;13511;48.622;9.230;2023-09-30T03:20:14;12.13;;;6.78;;
25653;SDS011;13511;48.622;9.230;2023-09-30T03:22:44;12.40;;;6.78;;
25653;SDS011;13511;48.622;9.230;2023-09-30T03:25:14;15.75;;;7.32;;
25653;SDS011;13511;48.622;9.230;2023-09-30T03:27:42;15.68;;;7.45;;
25653;SDS011;13511;48.622;9.230;2023-09-30T03:30:08;13.00;;;6.55;;
25653;SDS011;13511;48.622;9.230;2023-09-30T03:32:37;12.13;;;6.47;;
25653;SDS011;13511;48.622;9.230;2023-09-30T03:35:07;12.57;;;6.82;;
25653;SDS011;13511;48.622;9.230;2023-09-30T03:37:35;15.13;;;6.78;;
25653;SDS011;13511;48.622;9.230;2023-09-30T03:40:02;14.90;;;6.60;;
25653;SDS011;13511;48.622;9.230;2023-09-30T03:42:39;13.48;;;6.82;;
25653;SDS011;13511;48.622;9.230;2023-09-30T03:45:05;14.38;;;6.95;;
25653;SDS011;13511;48.622;9.230;2023-09-30T03:47:34;11.95;;;6.72;;
25653;SDS011;13511;48.622;9.230;2023-09-30T03:50:01;15.05;;;6.43;;
25653;SDS011;13511;48.622;9.230;2023-09-30T03:52:28;13.98;;;6.97;;
25653;SDS011;13511;48.622;9.230;2023-09-30T03:54:54;11.90;;;6.72;;
25653;SDS011;13511;48.622;9.230;2023-09-30T03:57:20;13.63;;;6.22;;
25653;SDS011;13511;48.622;9.230;2023-09-30T03:59:46;11.45;;;6.78;;
25653;SDS011;13511;48.622;9.230;2023-09-30T04:02:12;14.80;;;7.38;;
25653;SDS011;13511;48.622;9.230;2023-09-30T04:04:39;12.98;;;6.43;;
25653;SDS011;13511;48.622;9.230;2023-09-30T04:07:05;13.05;;;6.47;;
25653;SDS011;13511;48.622;9.230;2023-09-30T04:09:35;15.43;;;6.55;;
25653;SDS011;13511;48.622;9.230;2023-09-30T04:12:01;12.95;;;6.07;;
25653;SDS011;13511;48.622;9.230;2023-09-30T04:14:27;11.70;;;6.80;;
25653;SDS011;13511;48.622;9.230;2023-09-30T04:16:53;15.30;;;7.03;;
25653;SDS011;13511;48.622;9.230;2023-09-30T04:19:19;11.23;;;6.10;;
25653;SDS011;13511;48.622;9.230;2023-09-30T04:21:46;11.88;;;6.95;;
25653;SDS011;13511;48.622;9.230;2023-09-30T04:24:12;14.70;;;7.07;;
25653;SDS011;13511;48.622;9.230;2023-09-30T04:26:38;12.07;;;6.05;;
25653;SDS011;13511;48.622;9.230;2023-09-30T04:29:05;10.23;;;6.00;;
25653;SDS011;13511;48.622;9.230;2023-09-30T04:31:33;10.60;;;6.03;;
25653;SDS011;13511;48.622;9.230;2023-09-30T04:33:59;11.48;;;6.65;;
25653;SDS011;13511;48.622;9.230;2023-09-30T04:36:25;13.43;;;6.47;;
25653;SDS011;13511;48.622;9.230;2023-09-30T04:38:51;11.93;;;6.15;;
25653;SDS011;13511;48.622;9.230;2023-09-30T04:41:17;15.23;;;6.47;;
25653;SDS011;13511;48.622;9.230;2023-09-30T04:43:44;11.60;;;5.43;;
25653;SDS011;13511;48.622;9.230;2023-09-30T04:46:10;12.55;;;5.70;;
25653;SDS011;13511;48.622;9.230;2023-09-30T04:48:37;9.55;;;5.80;;
25653;SDS011;13511;48.622;9.230;2023-09-30T04:51:06;8.45;;;5.20;;
25653;SDS011;13511;48.622;9.230;2023-09-30T04:53:33;11.60;;;5.82;;
25653;SDS011;13511;48.622;9.230;2023-09-30T04:55:59;12.95;;;6.50;;
25653;SDS011;13511;48.622;9.230;2023-09-30T04:58:26;14.45;;;6.82;;
25653;SDS011;13511;48.622;9.230;2023-09-30T05:00:54;8.50;;;5.47;;
25653;SDS011;13511;48.622;9.230;2023-09-30T05:03:20;12.57;;;6.45;;
25653;SDS011;13511;48.622;9.230;2023-09-30T05:05:46;11.25;;;5.90;;
25653;SDS011;13511;48.622;9.230;2023-09-30T05:08:12;8.90;;;5.05;;
25653;SDS011;13511;48.622;9.230;2023-09-30T05:10:39;12.90;;;6.22;;
25653;SDS011;13511;48.622;9.230;2023-09-30T05:13:05;9.40;;;5.80;;
25653;SDS011;13511;48.622;9.230;2023-09-30T05:15:31;13.40;;;6.55;;
25653;SDS011;13511;48.622;9.230;2023-09-30T05:18:02;10.43;;;5.15;;
25653;SDS011;13511;48.622;9.230;2023-09-30T05:20:30;9.75;;;5.70;;
25653;SDS011;13511;48.622;9.230;2023-09-30T05:22:56;9.15;;;5.07;;
25653;SDS011;13511;48.622;9.230;2023-09-30T05:25:22;10.95;;;5.85;;
25653;SDS011;13511;48.622;9.230;2023-09-30T05:27:51;11.70;;;6.05;;
25653;SDS011;13511;48.622;9.230;2023-09-30T05:30:17;10.13;;;5.32;;
25653;SDS011;13511;48.622;9.230;2023-09-30T05:32:45;8.48;;;5.28;;
25653;SDS011;13511;48.622;9.230;2023-09-30T05:35:11;8.55;;;5.43;;
25653;SDS011;13511;48.622;9.230;2023-09-30T05:37:41;10.10;;;5.15;;
25653;SDS011;13511;48.622;9.230;2023-09-30T05:40:07;11.73;;;5.53;;
25653;SDS011;13511;48.622;9.230;2023-09-30T05:42:54;10.80;;;5.60;;
25653;SDS011;13511;48.622;9.230;2023-09-30T05:45:23;8.85;;;5.68;;
25653;SDS011;13511;48.622;9.230;2023-09-30T05:47:51;9.23;;;5.60;;
25653;SDS011;13511;48.622;9.230;2023-09-30T05:50:18;10.57;;;5.95;;
25653;SDS011;13511;48.622;9.230;2023-09-30T05:55:16;12.60;;;5.43;;
25653;SDS011;13511;48.622;9.230;2023-09-30T05:57:46;7.30;;;4.97;;
25653;SDS011;13511;48.622;9.230;2023-09-30T06:00:13;12.43;;;5.55;;
25653;SDS011;13511;48.622;9.230;2023-09-30T06:02:53;11.50;;;5.72;;
25653;SDS011;13511;48.622;9.230;2023-09-30T06:05:19;11.85;;;5.40;;
25653;SDS011;13511;48.622;9.230;2023-09-30T06:07:47;7.05;;;4.88;;
25653;SDS011;13511;48.622;9.230;2023-09-30T06:10:13;13.25;;;6.30;;
25653;SDS011;13511;48.622;9.230;2023-09-30T06:12:44;13.73;;;5.18;;
25653;SDS011;13511;48.622;9.230;2023-09-30T06:15:10;8.88;;;5.40;;
25653;SDS011;13511;48.622;9.230;2023-09-30T06:17:36;11.88;;;5.57;;
25653;SDS011;13511;48.622;9.230;2023-09-30T06:20:04;8.80;;;4.82;;
25653;SDS011;13511;48.622;9.230;2023-09-30T06:22:32;10.52;;;5.05;;
25653;SDS011;13511;48.622;9.230;2023-09-30T06:24:58;9.60;;;6.00;;
25653;SDS011;13511;48.622;9.230;2023-09-30T06:27:24;7.68;;;4.45;;
25653;SDS011;13511;48.622;9.230;2023-09-30T06:29:51;9.65;;;5.25;;
25653;SDS011;13511;48.622;9.230;2023-09-30T06:32:17;10.07;;;5.50;;
25653;SDS011;13511;48.622;9.230;2023-09-30T06:34:44;7.97;;;5.72;;
25653;SDS011;13511;48.622;9.230;2023-09-30T06:37:09;10.98;;;5.45;;
25653;SDS011;13511;48.622;9.230;2023-09-30T06:39:35;14.18;;;5.65;;
25653;SDS011;13511;48.622;9.230;2023-09-30T06:42:01;10.07;;;5.22;;
25653;SDS011;13511;48.622;9.230;2023-09-30T06:44:28;9.27;;;5.60;;
25653;SDS011;13511;48.622;9.230;2023-09-30T06:46:56;11.27;;;5.60;;
25653;SDS011;13511;48.622;9.230;2023-09-30T06:49:22;7.25;;;5.20;;
25653;SDS011;13511;48.622;9.230;2023-09-30T06:51:49;10.57;;;5.90;;
25653;SDS011;13511;48.622;9.230;2023-09-30T06:54:15;12.02;;;6.18;;
25653;SDS011;13511;48.622;9.230;2023-09-30T06:56:40;12.40;;;6.18;;
25653;SDS011;13511;48.622;9.230;2023-09-30T06:59:07;8.93;;;5.82;;
25653;SDS011;13511;48.622;9.230;2023-09-30T07:01:33;13.13;;;5.80;;
25653;SDS011;13511;48.622;9.230;2023-09-30T07:03:59;8.20;;;5.00;;
25653;SDS011;13511;48.622;9.230;2023-09-30T07:06:26;8.13;;;5.10;;
25653;SDS011;13511;48.622;9.230;2023-09-30T07:08:52;9.70;;;5.60;;
25653;SDS011;13511;48.622;9.230;2023-09-30T07:11:28;7.70;;;4.97;;
25653;SDS011;13511;48.622;9.230;2023-09-30T07:13:55;9.82;;;5.88;;
25653;SDS011;13511;48.622;9.230;2023-09-30T07:16:21;8.00;;;5.05;;
25653;SDS011;13511;48.622;9.230;2023-09-30T07:18:47;8.68;;;5.55;;
25653;SDS011;13511;48.622;9.230;2023-09-30T07:21:13;10.07;;;5.90;;
25653;SDS011;13511;48.622;9.230;2023-09-30T07:23:40;15.88;;;5.95;;
25653;SDS011;13511;48.622;9.230;2023-09-30T07:26:06;11.18;;;5.45;;
25653;SDS011;13511;48.622;9.230;2023-09-30T07:28:32;9.23;;;5.47;;
25653;SDS011;13511;48.622;9.230;2023-09-30T07:30:59;9.23;;;5.70;;
25653;SDS011;13511;48.622;9.230;2023-09-30T07:33:25;13.02;;;5.65;;
25653;SDS011;13511;48.622;9.230;2023-09-30T07:35:51;7.25;;;4.95;;
25653;SDS011;13511;48.622;9.230;2023-09-30T07:38:17;11.57;;;5.65;;
25653;SDS011;13511;48.622;9.230;2023-09-30T07:40:43;10.75;;;5.78;;
25653;SDS011;13511;48.622;9.230;2023-09-30T07:43:10;12.43;;;5.95;;
25653;SDS011;13511;48.622;9.230;2023-09-30T07:45:37;9.35;;;4.88;;
25653;SDS011;13511;48.622;9.230;2023-09-30T07:48:04;11.05;;;5.82;;
25653;SDS011;13511;48.622;9.230;2023-09-30T07:50:30;7.97;;;5.13;;
25653;SDS011;13511;48.622;9.230;2023-09-30T07:52:56;11.63;;;5.20;;
25653;SDS011;13511;48.622;9.230;2023-09-30T07:55:23;9.27;;;5.43;;
25653;SDS011;13511;48.622;9.230;2023-09-30T07:57:49;8.52;;;5.32;;
25653;SDS011;13511;48.622;9.230;2023-09-30T08:00:15;9.82;;;5.75;;
25653;SDS011;13511;48.622;9.230;2023-09-30T08:02:42;9.68;;;5.20;;
25653;SDS011;13511;48.622;9.230;2023-09-30T08:05:08;8.95;;;5.57;;
25653;SDS011;13511;48.622;9.230;2023-09-30T08:07:35;7.80;;;4.85;;
25653;SDS011;13511;48.622;9.230;2023-09-30T08:10:02;6.05;;;4.85;;
25653;SDS011;13511;48.622;9.230;2023-09-30T08:12:30;9.38;;;5.63;;
25653;SDS011;13511;48.622;9.230;2023-09-30T08:14:57;9.30;;;6.10;;
25653;SDS011;13511;48.622;9.230;2023-09-30T08:17:23;12.60;;;5.78;;
25653;SDS011;13511;48.622;9.230;2023-09-30T08:19:48;11.23;;;5.45;;
25653;SDS011;13511;48.622;9.230;2023-09-30T08:22:14;9.50;;;5.60;;
25653;SDS011;13511;48.622;9.230;2023-09-30T08:24:40;15.38;;;6.55;;
25653;SDS011;13511;48.622;9.230;2023-09-30T08:27:07;11.57;;;6.50;;
25653;SDS011;13511;48.622;9.230;2023-09-30T08:29:33;11.73;;;7.13;;
25653;SDS011;13511;48.622;9.230;2023-09-30T08:32:02;10.23;;;7.07;;
25653;SDS011;13511;48.622;9.230;2023-09-30T08:34:28;10.20;;;6.95;;
25653;SDS011;13511;48.622;9.230;2023-09-30T08:36:54;14.30;;;7.07;;
25653;SDS011;13511;48.622;9.230;2023-09-30T08:39:21;12.65;;;6.90;;
25653;SDS011;13511;48.622;9.230;2023-09-30T08:41:49;10.68;;;7.63;;
25653;SDS011;13511;48.622;9.230;2023-09-30T08:44:15;16.08;;;7.35;;
25653;SDS011;13511;48.622;9.230;2023-09-30T08:46:42;13.30;;;6.53;;
25653;SDS011;13511;48.622;9.230;2023-09-30T08:49:09;9.68;;;6.95;;
25653;SDS011;13511;48.622;9.230;2023-09-30T08:51:37;12.13;;;6.90;;
25653;SDS011;13511;48.622;9.230;2023-09-30T08:54:03;14.10;;;7.88;;
25653;SDS011;13511;48.622;9.230;2023-09-30T08:56:30;11.10;;;6.43;;
25653;SDS011;13511;48.622;9.230;2023-09-30T08:59:00;11.35;;;6.75;;
25653;SDS011;13511;48.622;9.230;2023-09-30T09:01:27;10.32;;;6.40;;
25653;SDS011;13511;48.622;9.230;2023-09-30T09:03:53;18.17;;;7.18;;
25653;SDS011;13511;48.622;9.230;2023-09-30T09:06:20;9.75;;;6.40;;
25653;SDS011;13511;48.622;9.230;2023-09-30T09:08:46;11.32;;;6.57;;
25653;SDS011;13511;48.622;9.230;2023-09-30T09:11:12;15.82;;;7.22;;
25653;SDS011;13511;48.622;9.230;2023-09-30T09:13:52;12.50;;;6.60;;
25653;SDS011;13511;48.622;9.230;2023-09-30T09:16:21;13.57;;;7.55;;
25653;SDS011;13511;48.622;9.230;2023-09-30T09:18:48;9.73;;;7.20;;
25653;SDS011;13511;48.622;9.230;2023-09-30T09:21:17;8.63;;;6.32;;
25653;SDS011;13511;48.622;9.230;2023-09-30T09:23:45;7.28;;;6.45;;
25653;SDS011;13511;48.622;9.230;2023-09-30T09:26:12;10.68;;;5.90;;
25653;SDS011;13511;48.622;9.230;2023-09-30T09:28:39;12.75;;;6.20;;
25653;SDS011;13511;48.622;9.230;2023-09-30T09:31:19;10.40;;;5.85;;
25653;SDS011;13511;48.622;9.230;2023-09-30T09:33:46;12.85;;;6.10;;
25653;SDS011;13511;48.622;9.230;2023-09-30T09:36:12;12.48;;;6.07;;
25653;SDS011;13511;48.622;9.230;2023-09-30T09:38:50;7.75;;;5.53;;
25653;SDS011;13511;48.622;9.230;2023-09-30T09:41:20;8.93;;;6.00;;
25653;SDS011;13511;48.622;9.230;2023-09-30T09:43:49;6.80;;;5.18;;
25653;SDS011;13511;48.622;9.230;2023-09-30T09:46:18;7.72;;;5.10;;
25653;SDS011;13511;48.622;9.230;2023-09-30T09:48:45;10.02;;;6.00;;
25653;SDS011;13511;48.622;9.230;2023-09-30T09:51:14;8.40;;;5.68;;
25653;SDS011;13511;48.622;9.230;2023-09-30T09:53:41;9.50;;;5.68;;
25653;SDS011;13511;48.622;9.230;2023-09-30T09:56:10;7.22;;;5.47;;
25653;SDS011;13511;48.622;9.230;2023-09-30T09:58:37;7.55;;;5.60;;
25653;SDS011;13511;48.622;9.230;2023-09-30T10:01:06;8.73;;;5.88;;
25653;SDS011;13511;48.622;9.230;2023-09-30T10:03:33;7.50;;;5.85;;
25653;SDS011;13511;48.622;9.230;2023-09-30T10:05:59;8.32;;;5.82;;
25653;SDS011;13511;48.622;9.230;2023-09-30T10:08:31;8.60;;;5.70;;
25653;SDS011;13511;48.622;9.230;2023-09-30T10:10:58;12.38;;;6.28;;
25653;SDS011;13511;48.622;9.230;2023-09-30T10:16:28;12.40;;;7.00;;
25653;SDS011;13511;48.622;9.230;2023-09-30T10:21:37;9.52;;;6.22;;
25653;SDS011;13511;48.622;9.230;2023-09-30T10:29:42;12.10;;;7.07;;
25653;SDS011;13511;48.622;9.230;2023-09-30T10:32:09;12.45;;;7.13;;
25653;SDS011;13511;48.622;9.230;2023-09-30T10:34:34;10.85;;;6.65;;
25653;SDS011;13511;48.622;9.230;2023-09-30T10:39:58;12.43;;;7.07;;
25653;SDS011;13511;48.622;9.230;2023-09-30T10:45:42;12.38;;;7.22;;
25653;SDS011;13511;48.622;9.230;2023-09-30T10:47:55;14.57;;;7.68;;
25653;SDS011;13511;48.622;9.230;2023-09-30T10:53:06;11.07;;;7.18;;
25653;SDS011;13511;48.622;9.230;2023-09-30T10:55:32;15.05;;;7.70;;
25653;SDS011;13511;48.622;9.230;2023-09-30T10:57:59;14.90;;;7.68;;
25653;SDS011;13511;48.622;9.230;2023-09-30T11:00:24;15.07;;;7.85;;
25653;SDS011;13511;48.622;9.230;2023-09-30T11:02:51;13.50;;;7.82;;
25653;SDS011;13511;48.622;9.230;2023-09-30T11:05:18;13.65;;;8.23;;
25653;SDS011;13511;48.622;9.230;2023-09-30T11:07:47;13.07;;;7.28;;
25653;SDS011;13511;48.622;9.230;2023-09-30T11:10:17;12.00;;;7.38;;
25653;SDS011;13511;48.622;9.230;2023-09-30T11:12:56;16.15;;;8.38;;
25653;SDS011;13511;48.622;9.230;2023-09-30T11:15:23;11.20;;;7.05;;
25653;SDS011;13511;48.622;9.230;2023-09-30T11:17:49;12.85;;;7.18;;
25653;SDS011;13511;48.622;9.230;2023-09-30T11:20:18;11.90;;;6.95;;
25653;SDS011;13511;48.622;9.230;2023-09-30T11:22:46;12.73;;;7.83;;
25653;SDS011;13511;48.622;9.230;2023-09-30T11:25:17;14.57;;;7.85;;
25653;SDS011;13511;48.622;9.230;2023-09-30T11:27:43;12.60;;;7.85;;
25653;SDS011;13511;48.622;9.230;2023-09-30T11:30:10;15.30;;;9.02;;
25653;SDS011;13511;48.622;9.230;2023-09-30T11:32:37;12.00;;;7.25;;
25653;SDS011;13511;48.622;9.230;2023-09-30T11:35:08;15.07;;;8.05;;
25653;SDS011;13511;48.622;9.230;2023-09-30T11:37:34;15.02;;;7.97;;
25653;SDS011;13511;48.622;9.230;2023-09-30T11:40:13;13.07;;;8.07;;
25653;SDS011;13511;48.622;9.230;2023-09-30T11:42:39;11.13;;;7.75;;
25653;SDS011;13511;48.622;9.230;2023-09-30T11:45:21;12.27;;;8.07;;
25653;SDS011;13511;48.622;9.230;2023-09-30T11:47:50;13.18;;;7.78;;
25653;SDS011;13511;48.622;9.230;2023-09-30T11:50:16;14.55;;;7.10;;
25653;SDS011;13511;48.622;9.230;2023-09-30T11:52:43;16.38;;;8.07;;
25653;SDS011;13511;48.622;9.230;2023-09-30T11:55:11;13.40;;;8.30;;
25653;SDS011;13511;48.622;9.230;2023-09-30T11:57:37;15.30;;;8.30;;
25653;SDS011;13511;48.622;9.230;2023-09-30T12:00:04;17.75;;;8.35;;
25653;SDS011;13511;48.622;9.230;2023-09-30T12:02:38;15.70;;;8.43;;
25653;SDS011;13511;48.622;9.230;2023-09-30T12:05:05;12.68;;;8.20;;
25653;SDS011;13511;48.622;9.230;2023-09-30T12:07:36;13.05;;;7.97;;
25653;SDS011;13511;48.622;9.230;2023-09-30T12:10:02;19.48;;;8.95;;
25653;SDS011;13511;48.622;9.230;2023-09-30T12:12:28;17.98;;;9.10;;
25653;SDS011;13511;48.622;9.230;2023-09-30T12:14:54;15.52;;;7.95;;
25653;SDS011;13511;48.622;9.230;2023-09-30T12:17:20;15.65;;;7.88;;
25653;SDS011;13511;48.622;9.230;2023-09-30T12:19:47;17.85;;;9.35;;
25653;SDS011;13511;48.622;9.230;2023-09-30T12:22:14;15.13;;;8.27;;
25653;SDS011;13511;48.622;9.230;2023-09-30T12:24:40;14.00;;;8.15;;
25653;SDS011;13511;48.622;9.230;2023-09-30T12:27:06;17.80;;;9.15;;
25653;SDS011;13511;48.622;9.230;2023-09-30T12:29:32;13.88;;;9.45;;
25653;SDS011;13511;48.622;9.230;2023-09-30T12:31:58;15.23;;;7.55;;
25653;SDS011;13511;48.622;9.230;2023-09-30T12:34:25;14.68;;;7.88;;
25653;SDS011;13511;48.622;9.230;2023-09-30T12:36:52;12.85;;;7.90;;
25653;SDS011;13511;48.622;9.230;2023-09-30T12:39:19;14.20;;;8.23;;
25653;SDS011;13511;48.622;9.230;2023-09-30T12:41:48;11.32;;;7.47;;
25653;SDS011;13511;48.622;9.230;2023-09-30T12:44:15;13.77;;;7.88;;
25653;SDS011;13511;48.622;9.230;2023-09-30T12:46:42;13.23;;;7.50;;
25653;SDS011;13511;48.622;9.230;2023-09-30T12:49:08;15.68;;;8.93;;
25653;SDS011;13511;48.622;9.230;2023-09-30T12:51:35;13.32;;;7.95;;
25653;SDS011;13511;48.622;9.230;2023-09-30T12:54:02;13.75;;;7.90;;
25653;SDS011;13511;48.622;9.230;2023-09-30T12:56:28;15.90;;;7.88;;
25653;SDS011;13511;48.622;9.230;2023-09-30T12:58:54;13.15;;;7.95;;
25653;SDS011;13511;48.622;9.230;2023-09-30T13:01:21;15.55;;;8.27;;
25653;SDS011;13511;48.622;9.230;2023-09-30T13:03:47;14.85;;;8.35;;
25653;SDS011;13511;48.622;9.230;2023-09-30T13:06:13;12.18;;;7.82;;
25653;SDS011;13511;48.622;9.230;2023-09-30T13:08:41;13.65;;;8.10;;
25653;SDS011;13511;48.622;9.230;2023-09-30T13:11:07;11.20;;;7.13;;
25653;SDS011;13511;48.622;9.230;2023-09-30T13:13:33;11.35;;;7.35;;
25653;SDS011;13511;48.622;9.230;2023-09-30T13:16:00;19.15;;;7.82;;
25653;SDS011;13511;48.622;9.230;2023-09-30T13:18:26;11.80;;;7.45;;
25653;SDS011;13511;48.622;9.230;2023-09-30T13:20:52;13.55;;;7.95;;
25653;SDS011;13511;48.622;9.230;2023-09-30T13:23:18;19.13;;;8.60;;
25653;SDS011;13511;48.622;9.230;2023-09-30T13:25:44;12.07;;;7.40;;
25653;SDS011;13511;48.622;9.230;2023-09-30T13:28:10;12.98;;;7.35;;
25653;SDS011;13511;48.622;9.230;2023-09-30T13:30:37;12.23;;;7.50;;
25653;SDS011;13511;48.622;9.230;2023-09-30T13:33:03;11.73;;;6.68;;
25653;SDS011;13511;48.622;9.230;2023-09-30T13:35:30;8.38;;;6.35;;
25653;SDS011;13511;48.622;9.230;2023-09-30T13:37:56;12.43;;;6.70;;
25653;SDS011;13511;48.622;9.230;2023-09-30T13:40:22;9.50;;;6.22;;
25653;SDS011;13511;48.622;9.230;2023-09-30T13:42:48;12.32;;;7.10;;
25653;SDS011;13511;48.622;9.230;2023-09-30T13:45:14;13.57;;;6.93;;
25653;SDS011;13511;48.622;9.230;2023-09-30T13:47:44;8.95;;;6.75;;
25653;SDS011;13511;48.622;9.230;2023-09-30T13:50:10;10.50;;;6.85;;
25653;SDS011;13511;48.622;9.230;2023-09-30T13:52:36;11.57;;;7.38;;
25653;SDS011;13511;48.622;9.230;2023-09-30T13:55:02;10.32;;;6.70;;
25653;SDS011;13511;48.622;9.230;2023-09-30T13:57:29;13.80;;;7.20;;
25653;SDS011;13511;48.622;9.230;2023-09-30T13:59:55;10.07;;;6.13;;
25653;SDS011;13511;48.622;9.230;2023-09-30T14:02:22;10.40;;;6.97;;
25653;SDS011;13511;48.622;9.230;2023-09-30T14:04:48;12.98;;;7.30;;
25653;SDS011;13511;48.622;9.230;2023-09-30T14:07:14;12.52;;;7.20;;
25653;SDS011;13511;48.622;9.230;2023-09-30T14:09:43;12.98;;;7.88;;
25653;SDS011;13511;48.622;9.230;2023-09-30T14:12:09;12.18;;;6.13;;
25653;SDS011;13511;48.622;9.230;2023-09-30T14:14:35;13.73;;;6.97;;
25653;SDS011;13511;48.622;9.230;2023-09-30T14:17:01;11.20;;;7.10;;
25653;SDS011;13511;48.622;9.230;2023-09-30T14:19:35;11.23;;;7.25;;
25653;SDS011;13511;48.622;9.230;2023-09-30T14:22:02;12.57;;;7.03;;
25653;SDS011;13511;48.622;9.230;2023-09-30T14:24:29;13.13;;;7.07;;
25653;SDS011;13511;48.622;9.230;2023-09-30T14:26:55;13.15;;;6.90;;
25653;SDS011;13511;48.622;9.230;2023-09-30T14:29:21;10.80;;;6.82;;
25653;SDS011;13511;48.622;9.230;2023-09-30T14:31:47;9.50;;;6.40;;
25653;SDS011;13511;48.622;9.230;2023-09-30T14:34:13;13.82;;;7.07;;
25653;SDS011;13511;48.622;9.230;2023-09-30T14:36:40;11.95;;;7.05;;
25653;SDS011;13511;48.622;9.230;2023-09-30T14:39:06;13.95;;;7.63;;
25653;SDS011;13511;48.622;9.230;2023-09-30T14:41:32;15.75;;;7.57;;
25653;SDS011;13511;48.622;9.230;2023-09-30T14:44:00;12.63;;;7.30;;
25653;SDS011;13511;48.622;9.230;2023-09-30T14:46:26;10.18;;;6.88;;
25653;SDS011;13511;48.622;9.230;2023-09-30T14:48:52;13.25;;;6.43;;
25653;SDS011;13511;48.622;9.230;2023-09-30T14:51:22;10.63;;;7.05;;
25653;SDS011;13511;48.622;9.230;2023-09-30T14:53:48;9.00;;;6.10;;
25653;SDS011;13511;48.622;9.230;2023-09-30T14:56:15;11.23;;;6.68;;
25653;SDS011;13511;48.622;9.230;2023-09-30T14:58:41;9.63;;;6.35;;